createdAt,value
2017-11-15T00:01:53.002Z,46.20
2017-11-15T00:04:26.506Z,40.20
2017-11-15T00:06:59.188Z,48.13
2017-11-15T00:09:31.798Z,42.67
2017-11-15T00:12:04.412Z,42.27
2017-11-15T00:14:36.988Z,45.27
2017-11-15T00:17:09.535Z,41.70
2017-11-15T00:19:42.090Z,48.40
2017-11-15T00:22:26.720Z,39.30
2017-11-15T00:24:59.390Z,41.40
2017-11-15T00:27:32.750Z,39.77
2017-11-15T00:30:05.356Z,41.17
2017-11-15T00:32:37.894Z,44.53
2017-11-15T00:35:10.458Z,50.20
2017-11-15T00:37:42.980Z,52.63
2017-11-15T00:40:15.546Z,42.00
2017-11-15T00:42:48.078Z,48.53
2017-11-15T00:45:20.621Z,39.03
2017-11-15T00:47:53.158Z,46.50
2017-11-15T00:50:25.987Z,41.93
2017-11-15T00:52:59.554Z,45.40
2017-11-15T00:55:32.158Z,43.43
2017-11-15T00:58:05.457Z,48.50
2017-11-15T01:00:38.791Z,47.77
2017-11-15T01:03:11.320Z,46.00
2017-11-15T01:05:43.878Z,52.07
2017-11-15T01:08:16.400Z,50.90
2017-11-15T01:10:48.976Z,44.30
2017-11-15T01:13:21.544Z,52.90
2017-11-15T01:15:54.100Z,44.90
2017-11-15T01:18:27.460Z,43.17
2017-11-15T01:21:00.104Z,43.23
2017-11-15T01:23:32.686Z,44.00
2017-11-15T01:26:05.300Z,43.47
2017-11-15T01:28:37.882Z,53.03
2017-11-15T01:31:10.439Z,49.37
2017-11-15T01:33:42.984Z,47.73
2017-11-15T01:36:15.540Z,54.00
2017-11-15T01:38:48.823Z,48.07
2017-11-15T01:41:21.370Z,43.90
2017-11-15T01:43:53.933Z,46.07
2017-11-15T01:46:29.585Z,44.30
2017-11-15T01:49:02.545Z,43.60
2017-11-15T01:51:35.153Z,48.33
2017-11-15T01:54:07.701Z,41.20
2017-11-15T01:56:40.245Z,43.13
2017-11-15T01:59:12.799Z,42.47
2017-11-15T02:01:45.349Z,42.93
2017-11-15T02:04:17.874Z,44.23
2017-11-15T02:06:51.187Z,39.13
2017-11-15T02:09:23.741Z,40.73
2017-11-15T02:11:57.206Z,44.03
2017-11-15T02:14:29.898Z,50.17
2017-11-15T02:17:02.545Z,43.13
2017-11-15T02:19:35.111Z,41.00
2017-11-15T02:22:07.663Z,38.63
2017-11-15T02:24:40.955Z,41.77
2017-11-15T02:27:14.263Z,41.83
2017-11-15T02:29:46.790Z,43.27
2017-11-15T02:32:19.341Z,36.30
2017-11-15T02:34:51.867Z,45.00
2017-11-15T02:37:25.224Z,43.40
2017-11-15T02:39:57.820Z,43.50
2017-11-15T02:42:31.330Z,40.67
2017-11-15T02:45:04.764Z,47.17
2017-11-15T02:47:37.328Z,42.07
2017-11-15T02:50:09.863Z,47.13
2017-11-15T02:52:42.414Z,39.30
2017-11-15T02:55:14.936Z,37.73
2017-11-15T02:57:48.273Z,43.83
2017-11-15T03:00:20.804Z,38.20
2017-11-15T03:02:54.122Z,41.00
2017-11-15T03:05:26.735Z,43.43
2017-11-15T03:07:59.514Z,45.93
2017-11-15T03:10:32.080Z,41.33
2017-11-15T03:13:04.679Z,45.20
2017-11-15T03:15:37.264Z,47.57
2017-11-15T03:18:09.820Z,43.87
2017-11-15T03:20:42.342Z,47.77
2017-11-15T03:23:15.691Z,50.80
2017-11-15T03:25:48.210Z,48.27
2017-11-15T03:28:21.542Z,44.20
2017-11-15T03:30:54.092Z,38.53
2017-11-15T03:33:27.526Z,37.50
2017-11-15T03:36:00.104Z,37.70
2017-11-15T03:38:32.722Z,38.53
2017-11-15T03:41:05.280Z,42.10
2017-11-15T03:43:38.614Z,39.40
2017-11-15T03:46:11.186Z,41.23
2017-11-15T03:48:43.755Z,40.33
2017-11-15T03:51:17.048Z,39.10
2017-11-15T03:53:50.378Z,40.73
2017-11-15T03:56:22.935Z,43.03
2017-11-15T03:58:55.506Z,36.23
2017-11-15T04:01:28.135Z,36.33
2017-11-15T04:04:00.817Z,35.77
2017-11-15T04:06:33.409Z,38.13
2017-11-15T04:09:06.097Z,39.00
2017-11-15T04:11:38.631Z,32.63
2017-11-15T04:14:11.252Z,31.93
2017-11-15T04:16:44.548Z,35.03
2017-11-15T04:19:17.877Z,32.83
2017-11-15T04:21:50.400Z,31.87
2017-11-15T04:24:22.960Z,29.50
2017-11-15T04:26:55.503Z,35.30
2017-11-15T04:29:28.964Z,38.83
2017-11-15T04:32:01.638Z,35.83
2017-11-15T04:34:34.209Z,36.20
2017-11-15T04:37:06.739Z,33.17
2017-11-15T04:39:39.286Z,37.10
2017-11-15T04:42:12.572Z,34.67
2017-11-15T04:44:45.871Z,36.27
2017-11-15T04:47:19.162Z,35.33
2017-11-15T04:49:52.512Z,35.73
2017-11-15T04:52:25.055Z,37.90
2017-11-15T04:54:57.834Z,38.27
2017-11-15T04:57:30.532Z,37.53
2017-11-15T05:00:03.133Z,40.23
2017-11-15T05:02:35.689Z,42.67
2017-11-15T05:05:08.247Z,36.13
2017-11-15T05:07:40.794Z,36.50
2017-11-15T05:10:14.119Z,35.37
2017-11-15T05:12:46.645Z,31.00
2017-11-15T05:15:19.213Z,36.13
2017-11-15T05:17:51.742Z,38.50
2017-11-15T05:20:24.708Z,29.80
2017-11-15T05:22:57.771Z,33.30
2017-11-15T05:25:30.546Z,31.53
2017-11-15T05:28:03.136Z,35.73
2017-11-15T05:30:35.732Z,35.80
2017-11-15T05:33:09.055Z,36.53
2017-11-15T05:35:41.606Z,31.87
2017-11-15T05:38:14.145Z,37.90
2017-11-15T05:40:46.693Z,35.57
2017-11-15T05:43:19.213Z,29.93
2017-11-15T05:45:52.538Z,29.80
2017-11-15T05:48:25.084Z,24.17
2017-11-15T05:50:58.610Z,29.67
2017-11-15T05:53:31.337Z,26.80
2017-11-15T05:56:03.919Z,34.30
2017-11-15T05:58:36.481Z,24.40
2017-11-15T06:01:09.042Z,25.70
2017-11-15T06:03:41.574Z,26.00
2017-11-15T06:06:14.913Z,21.07
2017-11-15T06:08:47.426Z,26.57
2017-11-15T06:11:20.012Z,24.97
2017-11-15T06:13:52.630Z,21.93
2017-11-15T06:16:25.149Z,20.80
2017-11-15T06:18:57.872Z,23.77
2017-11-15T06:21:30.545Z,22.20
2017-11-15T06:24:03.222Z,23.60
2017-11-15T06:26:35.944Z,21.93
2017-11-15T06:29:08.443Z,23.00
2017-11-15T06:31:41.100Z,20.77
2017-11-15T06:34:13.592Z,22.83
2017-11-15T06:36:46.864Z,20.67
2017-11-15T06:39:19.379Z,20.80
2017-11-15T06:41:51.931Z,24.03
2017-11-15T06:44:24.454Z,21.00
2017-11-15T06:46:57.607Z,21.00
2017-11-15T06:49:30.404Z,18.87
2017-11-15T06:52:03.036Z,21.30
2017-11-15T06:54:35.567Z,21.07
2017-11-15T06:57:08.889Z,21.80
2017-11-15T06:59:41.418Z,22.97
2017-11-15T07:02:13.967Z,21.63
2017-11-15T07:04:46.498Z,25.10
2017-11-15T07:07:19.034Z,22.47
2017-11-15T07:09:51.553Z,23.23
2017-11-15T07:12:24.121Z,25.13
2017-11-15T07:14:56.729Z,23.07
2017-11-15T07:17:29.433Z,24.00
2017-11-15T07:20:01.984Z,24.57
2017-11-15T07:22:34.563Z,26.30
2017-11-15T07:25:07.223Z,26.77
2017-11-15T07:27:39.770Z,25.67
2017-11-15T07:30:13.719Z,30.57
2017-11-15T07:32:46.384Z,30.33
2017-11-15T07:35:18.910Z,27.97
2017-11-15T07:37:51.446Z,25.50
2017-11-15T07:40:23.962Z,29.70
2017-11-15T07:42:56.793Z,30.03
2017-11-15T07:45:29.523Z,29.87
2017-11-15T07:48:02.370Z,33.80
2017-11-15T07:50:34.952Z,32.87
2017-11-15T07:53:07.508Z,33.23
2017-11-15T07:55:40.038Z,35.30
2017-11-15T07:58:12.579Z,34.77
2017-11-15T08:00:45.120Z,34.80
2017-11-15T08:03:18.440Z,39.60
2017-11-15T08:05:50.968Z,35.33
2017-11-15T08:08:23.642Z,37.30
2017-11-15T08:10:56.270Z,40.07
2017-11-15T08:13:28.993Z,41.77
2017-11-15T08:16:01.561Z,45.33
2017-11-15T08:18:34.233Z,39.00
2017-11-15T08:21:07.575Z,40.23
2017-11-15T08:23:40.956Z,46.83
2017-11-15T08:26:14.243Z,43.70
2017-11-15T08:28:46.784Z,47.40
2017-11-15T08:31:19.311Z,40.70
2017-11-15T08:33:52.621Z,46.03
2017-11-15T08:36:25.158Z,41.57
2017-11-15T08:38:59.680Z,40.87
2017-11-15T08:41:32.982Z,35.23
2017-11-15T08:44:05.548Z,44.17
2017-11-15T08:46:38.154Z,46.87
2017-11-15T08:49:10.729Z,37.63
2017-11-15T08:51:43.259Z,43.13
2017-11-15T08:54:15.800Z,46.20
2017-11-15T08:56:48.350Z,52.30
2017-11-15T08:59:21.699Z,43.13
2017-11-15T09:01:54.247Z,44.20
2017-11-15T09:04:27.022Z,40.30
2017-11-15T09:06:59.803Z,44.63
2017-11-15T09:09:32.512Z,41.47
2017-11-15T09:12:05.087Z,41.63
2017-11-15T09:14:37.722Z,41.17
2017-11-15T09:17:10.258Z,46.10
2017-11-15T09:19:42.808Z,42.90
2017-11-15T09:22:15.330Z,44.53
2017-11-15T09:24:47.888Z,40.07
2017-11-15T09:27:20.433Z,41.00
2017-11-15T09:29:53.059Z,42.17
2017-11-15T09:32:26.593Z,44.33
2017-11-15T09:34:59.307Z,39.10
2017-11-15T09:37:32.042Z,42.83
2017-11-15T09:40:04.643Z,40.80
2017-11-15T09:42:37.283Z,41.40
2017-11-15T09:45:10.751Z,38.00
2017-11-15T09:47:43.294Z,38.00
2017-11-15T09:50:15.847Z,39.90
2017-11-15T09:52:49.150Z,38.43
2017-11-15T09:55:21.673Z,38.23
2017-11-15T09:57:54.215Z,36.47
2017-11-15T10:00:26.851Z,36.80
2017-11-15T10:02:59.771Z,37.23
2017-11-15T10:05:33.295Z,37.37
2017-11-15T10:08:05.903Z,35.30
2017-11-15T10:10:38.439Z,33.13
2017-11-15T10:13:10.998Z,32.33
2017-11-15T10:15:43.512Z,33.07
2017-11-15T10:18:16.067Z,31.17
2017-11-15T10:20:48.591Z,29.03
2017-11-15T10:23:21.910Z,31.00
2017-11-15T10:25:54.574Z,30.53
2017-11-15T10:28:30.096Z,31.50
2017-11-15T10:31:02.780Z,30.83
2017-11-15T10:33:36.164Z,28.47
2017-11-15T10:36:08.721Z,30.20
2017-11-15T10:38:41.272Z,31.33
2017-11-15T10:41:13.799Z,32.03
2017-11-15T10:43:46.339Z,30.03
2017-11-15T10:46:18.857Z,28.20
2017-11-15T10:48:51.410Z,29.93
2017-11-15T10:51:23.952Z,29.13
2017-11-15T10:53:56.562Z,26.50
2017-11-15T10:56:29.130Z,33.50
2017-11-15T10:59:02.018Z,33.50
2017-11-15T11:01:34.656Z,34.40
2017-11-15T11:04:07.242Z,33.57
2017-11-15T11:06:39.790Z,32.40
2017-11-15T11:09:13.110Z,31.13
2017-11-15T11:11:45.623Z,32.83
2017-11-15T11:14:18.182Z,32.93
2017-11-15T11:16:50.695Z,32.47
2017-11-15T11:19:23.239Z,34.50
2017-11-15T11:21:55.796Z,33.87
2017-11-15T11:24:28.492Z,35.03
2017-11-15T11:27:01.189Z,39.23
2017-11-15T11:29:33.842Z,38.47
2017-11-15T11:32:06.461Z,39.37
2017-11-15T11:34:39.850Z,37.43
2017-11-15T11:37:12.371Z,36.63
2017-11-15T11:39:44.919Z,37.57
2017-11-15T11:42:18.207Z,33.20
2017-11-15T11:44:51.540Z,33.93
2017-11-15T11:47:24.069Z,35.17
2017-11-15T11:49:57.481Z,33.57
2017-11-15T11:52:30.984Z,33.73
2017-11-15T11:55:03.591Z,33.07
2017-11-15T11:57:36.152Z,30.90
2017-11-15T12:00:08.727Z,33.93
2017-11-15T12:02:42.070Z,32.03
2017-11-15T12:05:14.616Z,31.47
2017-11-15T12:07:47.141Z,29.27
2017-11-15T12:10:19.687Z,30.33
2017-11-15T12:12:52.199Z,31.03
2017-11-15T12:15:25.566Z,28.93
2017-11-15T12:17:58.119Z,28.13
2017-11-15T12:20:30.959Z,30.30
2017-11-15T12:23:04.298Z,28.57
2017-11-15T12:25:36.915Z,26.67
2017-11-15T12:28:10.264Z,27.07
2017-11-15T12:30:42.805Z,28.07
2017-11-15T12:33:15.334Z,25.40
2017-11-15T12:35:47.904Z,28.40
2017-11-15T12:38:20.444Z,24.70
2017-11-15T12:40:53.091Z,31.87
2017-11-15T12:43:25.631Z,27.37
2017-11-15T12:46:03.614Z,31.70
2017-11-15T12:48:36.591Z,26.77
2017-11-15T12:51:11.881Z,28.63
2017-11-15T12:53:47.867Z,24.93
2017-11-15T12:56:28.786Z,25.10
2017-11-15T12:59:01.425Z,26.57
2017-11-15T13:01:34.159Z,30.50
2017-11-15T13:04:07.165Z,26.53
2017-11-15T13:06:39.771Z,26.07
2017-11-15T13:09:17.526Z,25.97
2017-11-15T13:11:54.284Z,26.23
2017-11-15T13:14:27.899Z,30.53
2017-11-15T13:17:01.347Z,25.13
2017-11-15T13:19:34.858Z,27.63
2017-11-15T13:22:08.683Z,28.10
2017-11-15T13:24:42.336Z,26.77
2017-11-15T13:27:18.294Z,28.93
2017-11-15T13:29:51.152Z,25.80
2017-11-15T13:32:24.491Z,24.40
2017-11-15T13:34:59.410Z,29.07
2017-11-15T13:37:32.743Z,24.70
2017-11-15T13:40:05.302Z,26.30
2017-11-15T13:42:39.935Z,24.37
2017-11-15T13:45:13.599Z,24.03
2017-11-15T13:47:47.139Z,28.10
2017-11-15T13:50:19.675Z,29.93
2017-11-15T13:52:53.012Z,24.27
2017-11-15T13:55:26.464Z,25.90
2017-11-15T13:57:59.911Z,31.67
2017-11-15T14:00:33.449Z,26.53
2017-11-15T14:03:06.808Z,32.03
2017-11-15T14:05:45.271Z,29.60
2017-11-15T14:08:19.700Z,35.00
2017-11-15T14:10:59.008Z,32.27
2017-11-15T14:13:33.173Z,36.63
2017-11-15T14:16:06.033Z,32.63
2017-11-15T14:18:38.578Z,35.97
2017-11-15T14:21:19.087Z,34.63
2017-11-15T14:23:52.754Z,38.10
2017-11-15T14:26:25.467Z,39.23
2017-11-15T14:28:58.489Z,35.63
2017-11-15T14:31:32.342Z,36.83
2017-11-15T14:34:06.149Z,37.37
2017-11-15T14:36:38.961Z,43.97
2017-11-15T14:39:13.879Z,40.53
2017-11-15T14:41:46.542Z,45.07
2017-11-15T14:44:19.937Z,38.70
2017-11-15T14:46:52.700Z,39.80
2017-11-15T14:49:26.129Z,51.93
2017-11-15T14:51:58.700Z,43.73
2017-11-15T14:54:32.342Z,47.60
2017-11-15T14:57:05.796Z,52.03
2017-11-15T14:59:39.853Z,50.63
2017-11-15T15:02:13.366Z,47.50
2017-11-15T15:04:54.623Z,40.30
2017-11-15T15:07:27.603Z,45.97
2017-11-15T15:10:00.819Z,63.90
2017-11-15T15:12:34.721Z,51.93
2017-11-15T15:15:09.491Z,48.83
2017-11-15T15:17:42.100Z,52.13
2017-11-15T15:20:17.676Z,50.47
2017-11-15T15:22:50.386Z,42.13
2017-11-15T15:25:23.172Z,50.30
2017-11-15T15:27:56.759Z,38.63
2017-11-15T15:30:29.569Z,53.90
2017-11-15T15:33:02.264Z,39.90
2017-11-15T15:35:35.727Z,45.77
2017-11-15T15:38:08.360Z,45.77
2017-11-15T15:40:41.000Z,35.57
2017-11-15T15:43:13.590Z,43.90
2017-11-15T15:45:46.366Z,41.47
2017-11-15T15:48:24.195Z,36.17
2017-11-15T15:50:57.749Z,38.10
2017-11-15T15:53:31.174Z,37.17
2017-11-15T15:56:04.497Z,32.97
2017-11-15T15:58:37.042Z,36.73
2017-11-15T16:01:10.451Z,31.40
2017-11-15T16:03:44.350Z,33.97
2017-11-15T16:06:17.281Z,38.00
2017-11-15T16:08:50.768Z,39.13
2017-11-15T16:11:24.106Z,39.23
2017-11-15T16:13:56.734Z,34.03
2017-11-15T16:16:30.279Z,45.57
2017-11-15T16:19:04.924Z,39.03
2017-11-15T16:21:37.596Z,34.70
2017-11-15T16:24:12.405Z,41.00
2017-11-15T16:26:45.822Z,39.07
2017-11-15T16:29:18.408Z,37.23
2017-11-15T16:31:51.180Z,49.50
2017-11-15T16:34:24.598Z,41.47
2017-11-15T16:36:57.650Z,44.27
2017-11-15T16:39:31.996Z,44.67
2017-11-15T16:42:04.764Z,39.73
2017-11-15T16:44:41.848Z,36.13
2017-11-15T16:47:15.237Z,37.57
2017-11-15T16:49:50.136Z,32.27
2017-11-15T16:52:24.302Z,47.50
2017-11-15T16:54:57.065Z,58.43
2017-11-15T16:57:29.842Z,40.30
2017-11-15T17:00:02.468Z,38.50
2017-11-15T17:02:35.514Z,51.03
2017-11-15T17:05:08.381Z,48.30
2017-11-15T17:07:42.072Z,46.57
2017-11-15T17:10:14.720Z,46.20
2017-11-15T17:12:48.206Z,42.07
2017-11-15T17:15:20.802Z,38.90
2017-11-15T17:17:55.290Z,39.73
2017-11-15T17:20:28.058Z,55.33
2017-11-15T17:23:01.106Z,42.87
2017-11-15T17:25:34.910Z,45.37
2017-11-15T17:28:08.384Z,56.57
2017-11-15T17:33:26.376Z,39.83
2017-11-15T17:35:59.083Z,58.10
2017-11-15T17:38:31.755Z,39.07
2017-11-15T17:41:04.411Z,35.00
2017-11-15T17:43:37.822Z,40.50
2017-11-15T17:46:10.360Z,40.37
2017-11-15T17:48:44.128Z,37.90
2017-11-15T17:51:18.125Z,50.90
2017-11-15T17:53:50.793Z,42.13
2017-11-15T17:56:27.576Z,41.73
2017-11-15T17:59:00.479Z,39.93
2017-11-15T18:01:33.064Z,40.50
2017-11-15T18:04:07.232Z,37.93
2017-11-15T18:06:41.904Z,33.30
2017-11-15T18:09:14.628Z,49.23
2017-11-15T18:11:47.981Z,40.17
2017-11-15T18:14:20.565Z,32.00
2017-11-15T18:16:53.245Z,31.73
2017-11-15T18:19:25.858Z,35.90
2017-11-15T18:21:58.492Z,35.67
2017-11-15T18:24:31.338Z,46.97
2017-11-15T18:27:04.031Z,37.40
2017-11-15T18:29:36.693Z,39.53
2017-11-15T18:32:09.948Z,44.57
2017-11-15T18:34:45.220Z,36.50
2017-11-15T18:37:17.766Z,38.10
2017-11-15T18:39:51.027Z,55.23
2017-11-15T18:42:23.593Z,40.17
2017-11-15T18:44:56.512Z,42.53
2017-11-15T18:47:29.529Z,49.77
2017-11-15T18:50:03.121Z,32.00
2017-11-15T18:52:35.694Z,39.50
2017-11-15T18:55:09.330Z,35.93
2017-11-15T18:57:41.875Z,33.37
2017-11-15T19:00:15.197Z,37.40
2017-11-15T19:02:47.752Z,39.40
2017-11-15T19:05:21.301Z,37.63
2017-11-15T19:07:54.300Z,36.77
2017-11-15T19:10:26.931Z,38.83
2017-11-15T19:12:59.509Z,48.50
2017-11-15T19:15:32.160Z,49.40
2017-11-15T19:18:04.771Z,45.40
2017-11-15T19:20:37.462Z,48.20
2017-11-15T19:23:10.010Z,51.73
2017-11-15T19:25:42.569Z,38.87
2017-11-15T19:28:15.143Z,45.57
2017-11-15T19:30:48.653Z,51.03
2017-11-15T19:33:23.104Z,40.40
2017-11-15T19:35:55.694Z,39.13
2017-11-15T19:38:28.286Z,36.40
2017-11-15T19:41:00.866Z,37.10
2017-11-15T19:43:33.421Z,34.03
2017-11-15T19:46:05.993Z,52.23
2017-11-15T19:48:38.533Z,42.70
2017-11-15T19:51:11.084Z,38.83
2017-11-15T19:53:43.710Z,44.77
2017-11-15T19:56:16.557Z,33.90
2017-11-15T19:58:51.887Z,46.70
2017-11-15T20:01:24.535Z,37.00
2017-11-15T20:03:57.065Z,39.93
2017-11-15T20:06:29.646Z,40.73
2017-11-15T20:09:02.292Z,44.77
2017-11-15T20:11:34.868Z,40.23
2017-11-15T20:14:07.496Z,52.73
2017-11-15T20:16:40.094Z,52.83
2017-11-15T20:19:12.888Z,43.07
2017-11-15T20:21:46.205Z,35.73
2017-11-15T20:24:18.945Z,33.73
2017-11-15T20:26:51.511Z,35.93
2017-11-15T20:29:24.143Z,40.90
2017-11-15T20:31:57.517Z,35.10
2017-11-15T20:34:30.847Z,44.97
2017-11-15T20:37:03.421Z,43.77
2017-11-15T20:39:36.708Z,44.00
2017-11-15T20:42:10.034Z,51.33
2017-11-15T20:44:42.627Z,44.07
2017-11-15T20:47:17.280Z,46.53
2017-11-15T20:49:50.669Z,46.37
2017-11-15T20:52:37.978Z,39.70
2017-11-15T20:55:12.171Z,41.03
2017-11-15T20:57:44.808Z,43.33
2017-11-15T21:03:00.084Z,56.80
2017-11-15T21:05:33.771Z,51.40
2017-11-15T21:08:07.027Z,42.77
2017-11-15T21:10:39.702Z,45.77
2017-11-15T21:13:12.624Z,38.40
2017-11-15T21:15:48.763Z,39.13
2017-11-15T21:18:21.431Z,53.87
2017-11-15T21:20:54.045Z,42.80
2017-11-15T21:23:26.729Z,44.13
2017-11-15T21:25:59.697Z,35.00
2017-11-15T21:28:32.343Z,35.40
2017-11-15T21:31:05.142Z,69.20
2017-11-15T21:33:38.588Z,40.33
2017-11-15T21:36:11.904Z,41.07
2017-11-15T21:38:45.231Z,37.70
2017-11-15T21:41:17.979Z,43.07
2017-11-15T21:43:50.750Z,41.47
2017-11-15T21:46:24.046Z,55.33
2017-11-15T21:48:57.491Z,48.33
2017-11-15T21:51:30.041Z,59.23
2017-11-15T21:54:02.622Z,42.90
2017-11-15T21:56:35.154Z,69.33
2017-11-15T21:59:07.718Z,47.07
2017-11-15T22:01:40.259Z,37.70
2017-11-15T22:04:12.812Z,32.50
2017-11-15T22:06:45.353Z,51.17
2017-11-15T22:09:17.953Z,45.07
2017-11-15T22:11:51.428Z,49.73
2017-11-15T22:14:24.025Z,58.87
2017-11-15T22:16:57.328Z,60.57
2017-11-15T22:19:29.894Z,39.83
2017-11-15T22:22:03.235Z,62.73
2017-11-15T22:24:35.798Z,65.27
2017-11-15T22:27:08.327Z,45.07
2017-11-15T22:29:40.879Z,46.00
2017-11-15T22:32:13.421Z,54.10
2017-11-15T22:34:45.999Z,44.37
2017-11-15T22:37:18.608Z,60.57
2017-11-15T22:39:51.242Z,46.07
2017-11-15T22:42:24.198Z,57.17
2017-11-15T22:44:58.257Z,44.93
2017-11-15T22:47:30.826Z,44.90
2017-11-15T22:50:03.456Z,44.27
2017-11-15T22:52:36.775Z,47.57
2017-11-15T22:55:10.087Z,48.40
2017-11-15T22:57:42.660Z,61.07
2017-11-15T23:00:15.219Z,39.63
2017-11-15T23:02:48.517Z,51.33
2017-11-15T23:05:21.186Z,55.40
2017-11-15T23:07:53.768Z,48.00
2017-11-15T23:10:27.346Z,41.70
2017-11-15T23:12:59.907Z,45.53
2017-11-15T23:15:32.515Z,51.80
2017-11-15T23:18:05.807Z,55.97
2017-11-15T23:20:39.135Z,62.93
2017-11-15T23:23:11.672Z,59.63
2017-11-15T23:25:44.977Z,33.67
2017-11-15T23:28:18.386Z,41.20
2017-11-15T23:30:50.936Z,55.10
2017-11-15T23:33:24.238Z,52.50
2017-11-15T23:35:57.655Z,69.97
2017-11-15T23:38:30.206Z,46.90
2017-11-15T23:41:03.506Z,56.83
2017-11-15T23:43:37.019Z,49.80
2017-11-15T23:46:09.651Z,47.93
2017-11-15T23:48:42.195Z,45.50
2017-11-15T23:51:14.762Z,43.50
2017-11-15T23:53:47.312Z,40.33
2017-11-15T23:56:20.692Z,52.60
2017-11-15T23:58:53.466Z,40.40
